createdAt,value
2023-04-08T00:02:47.794Z,11.00
2023-04-08T00:12:52.774Z,10.10
2023-04-08T00:22:57.837Z,12.17
2023-04-08T00:33:02.346Z,12.43
2023-04-08T00:43:04.559Z,14.70
2023-04-08T00:53:08.836Z,11.33
2023-04-08T01:03:29.340Z,12.70
2023-04-08T01:13:36.261Z,13.63
2023-04-08T01:23:47.610Z,11.40
2023-04-08T01:33:51.969Z,13.87
2023-04-08T01:43:54.419Z,16.40
2023-04-08T01:53:56.592Z,16.03
2023-04-08T02:04:04.833Z,14.80
2023-04-08T02:14:07.016Z,16.43
2023-04-08T02:24:10.713Z,16.37
2023-04-08T02:34:16.559Z,16.93
2023-04-08T02:44:18.767Z,14.83
2023-04-08T02:54:23.516Z,14.40
2023-04-08T03:04:28.246Z,14.30
2023-04-08T03:14:32.645Z,14.30
2023-04-08T03:24:36.979Z,15.60
2023-04-08T03:34:39.179Z,14.97
2023-04-08T03:44:45.616Z,14.80
2023-04-08T03:54:52.486Z,13.17
2023-04-08T04:04:56.239Z,14.53
2023-04-08T04:14:58.506Z,15.67
2023-04-08T04:25:00.632Z,15.03
2023-04-08T04:35:08.040Z,14.57
2023-04-08T04:45:13.053Z,13.70
2023-04-08T04:55:18.361Z,13.87
2023-04-08T05:05:20.823Z,12.13
2023-04-08T05:15:25.140Z,13.50
2023-04-08T05:25:30.333Z,13.00
2023-04-08T05:35:37.617Z,10.87
2023-04-08T05:45:42.259Z,11.80
2023-04-08T05:55:46.600Z,11.23
2023-04-08T06:05:48.830Z,9.27
2023-04-08T06:15:51.049Z,9.80
2023-04-08T06:25:58.868Z,10.43
2023-04-08T06:36:08.431Z,10.77
2023-04-08T06:46:20.317Z,12.05
2023-04-08T06:56:27.483Z,12.75
2023-04-08T07:06:30.042Z,9.30
2023-04-08T07:16:32.558Z,8.07
2023-04-08T07:26:34.865Z,8.23
2023-04-08T07:36:37.103Z,7.85
2023-04-08T07:46:41.923Z,7.25
2023-04-08T07:56:47.099Z,7.68
2023-04-08T08:06:53.763Z,7.75
2023-04-08T08:16:57.829Z,9.00
2023-04-08T08:27:04.759Z,8.73
2023-04-08T08:37:11.767Z,8.88
2023-04-08T08:47:19.320Z,9.10
2023-04-08T08:57:21.562Z,8.80
2023-04-08T09:07:26.340Z,9.00
2023-04-08T09:17:35.933Z,8.35
2023-04-08T09:27:38.395Z,8.50
2023-04-08T09:37:43.567Z,9.85
2023-04-08T09:48:09.361Z,8.18
2023-04-08T09:58:17.323Z,7.78
2023-04-08T10:08:19.971Z,8.40
2023-04-08T10:18:30.869Z,9.15
2023-04-08T10:28:35.136Z,8.82
2023-04-08T10:38:40.241Z,7.10
2023-04-08T10:49:00.706Z,7.32
2023-04-08T10:59:06.658Z,6.60
2023-04-08T11:09:14.822Z,6.25
2023-04-08T11:19:23.163Z,7.35
2023-04-08T11:29:25.367Z,5.97
2023-04-08T11:39:30.966Z,5.07
2023-04-08T11:49:46.330Z,5.60
2023-04-08T11:59:52.345Z,5.43
2023-04-08T12:09:54.998Z,4.65
2023-04-08T12:19:57.405Z,4.50
2023-04-08T12:30:02.849Z,5.28
2023-04-08T12:40:06.361Z,7.38
2023-04-08T12:50:12.281Z,4.45
2023-04-08T13:00:15.567Z,4.78
2023-04-08T13:10:22.582Z,6.22
2023-04-08T13:20:27.289Z,5.32
2023-04-08T13:30:34.595Z,6.05
2023-04-08T13:40:36.922Z,6.53
2023-04-08T13:50:40.704Z,5.18
2023-04-08T14:00:42.894Z,4.82
2023-04-08T14:10:48.382Z,6.80
2023-04-08T14:20:55.360Z,5.15
2023-04-08T14:30:59.877Z,6.13
2023-04-08T14:41:09.136Z,4.90
2023-04-08T14:51:11.759Z,6.28
2023-04-08T15:01:14.394Z,4.40
2023-04-08T15:11:25.368Z,4.68
2023-04-08T15:21:34.667Z,5.18
2023-04-08T15:31:44.646Z,6.65
2023-04-08T15:41:49.435Z,5.78
2023-04-08T15:51:53.767Z,6.03
2023-04-08T16:01:56.053Z,4.50
2023-04-08T16:12:00.265Z,4.45
2023-04-08T16:22:02.799Z,5.97
2023-04-08T16:32:05.623Z,3.53
2023-04-08T16:42:07.912Z,4.53
2023-04-08T16:52:12.347Z,4.60
2023-04-08T17:02:17.900Z,6.55
2023-04-08T17:12:21.393Z,5.00
2023-04-08T17:22:24.601Z,6.25
2023-04-08T17:32:29.201Z,4.32
2023-04-08T17:42:33.640Z,6.32
2023-04-08T17:52:38.873Z,6.40
2023-04-08T18:13:03.728Z,6.47
2023-04-08T18:23:10.068Z,6.97
2023-04-08T18:33:15.727Z,8.33
2023-04-08T18:43:18.035Z,8.57
2023-04-08T18:53:20.759Z,9.57
2023-04-08T19:03:27.688Z,14.93
2023-04-08T19:13:32.446Z,12.33
2023-04-08T19:23:34.794Z,14.23
2023-04-08T19:33:38.140Z,15.63
2023-04-08T19:43:42.703Z,15.40
2023-04-08T19:53:45.912Z,13.63
2023-04-08T20:03:50.733Z,16.85
2023-04-08T20:13:56.029Z,11.67
2023-04-08T20:23:58.188Z,11.50
2023-04-08T20:34:03.992Z,11.27
2023-04-08T20:44:10.765Z,11.27
2023-04-08T20:54:13.853Z,12.47
2023-04-08T21:04:18.205Z,13.10
2023-04-08T21:14:24.921Z,17.57
2023-04-08T21:24:29.878Z,14.90
2023-04-08T21:34:32.142Z,12.93
2023-04-08T21:44:39.128Z,13.10
2023-04-08T21:54:41.361Z,14.57
2023-04-08T22:04:46.500Z,13.70
2023-04-08T22:14:53.107Z,14.37
2023-04-08T22:24:56.278Z,15.20
2023-04-08T22:35:03.000Z,14.73
2023-04-08T22:45:14.770Z,14.13
2023-04-08T22:55:16.977Z,11.87
2023-04-08T23:05:24.453Z,12.43
2023-04-08T23:15:28.915Z,11.47
2023-04-08T23:25:31.833Z,14.07
2023-04-08T23:35:36.377Z,13.37
2023-04-08T23:45:43.001Z,15.63
2023-04-08T23:55:45.087Z,13.10
